KEMP/EMP METAR and TAF weather

Enter ICAO airport designator
Station Type Date Time Source
KEMP METAR 2022/06/27 07:53 UTC NOAA

KEMP 270753Z AUTO 29004KT 10SM CLR 16/13 A3031 RMK AO2 SLP259 T01560128


Station Type Date Time Source
KEMP Decoded METAR 2022/06/27 07:53 UTC NOAA

EMPORIA MUNICIPAL AIRPORT, KS, United States (KEMP) 38-20N 96-12W 367M
Jun 27, 2022 - 03:53 AM EDT / 2022.06.27 0753 UTC
Wind: from the WNW (290 degrees) at 5 MPH (4 KT):0
Visibility: 10 mile(s):0
Sky conditions: clear
Temperature: 60.1 F (15.6 C)
Dew Point: 55.0 F (12.8 C)
Relative Humidity: 83%
Pressure (altimeter): 30.31 in. Hg (1026 hPa)
ob: KEMP 270753Z AUTO 29004KT 10SM CLR 16/13 A3031 RMK AO2 SLP259 T01560128
cycle: 8

Station Type Date Time Source
KEMP TAF UTC NOAA

Error!

Example: see airport list